Time;durP1;ratioP1;P1;durP2;ratioP2;P2;SDS_P1;SDS_P2;PMS_P1;PMS_P2;Temp;Humidity;BMP_temperature;BMP_pressure;BME280_temperature;BME280_humidity;BME280_pressure;Samples;Min_cycle;Max_cycle;Signal;HPM_P1;HPM_P2
2022/07/16 00:01:22;;;;;;;;;;;26.00;45.20;;;;;;2100039;28;1260;-80
2022/07/16 00:01:39;;;;;;;;;;;26.00;45.30;;;;;;2100654;28;1286;-80
2022/07/16 00:02:39;;;;;;;;;;;26.00;45.30;;;;;;2100196;28;1243;-80
2022/07/16 00:03:40;;;;;;;;;;;26.00;45.30;;;;;;2091818;28;1216;-80
2022/07/16 00:04:40;;;;;;;;;;;26.00;45.30;;;;;;2099929;28;1898;-79
2022/07/16 00:05:41;;;;;;;;;;;26.00;45.30;;;;;;2099872;28;1243;-80
2022/07/16 00:06:43;;;;;;;;;;;26.00;45.30;;;;;;2100042;28;992;-79
2022/07/16 00:07:43;;;;;;;;;;;26.00;45.20;;;;;;2100711;28;845;-80
2022/07/16 00:08:44;;;;;;;;;;;26.00;45.30;;;;;;2099985;28;1265;-80
2022/07/16 00:09:44;;;;;;;;;;;26.00;45.30;;;;;;2100149;28;1020;-80
2022/07/16 00:10:44;;;;;;;;;;;26.00;45.30;;;;;;2099973;28;1307;-80
2022/07/16 00:11:45;;;;;;;;;;;26.00;45.30;;;;;;2091553;28;1407;-80
2022/07/16 00:12:45;;;;;;;;;;;26.00;45.30;;;;;;2091672;28;1240;-80
2022/07/16 00:13:45;;;;;;;;;;;26.00;45.30;;;;;;2091710;28;1392;-80
2022/07/16 00:14:46;;;;;;;;;;;26.00;45.30;;;;;;2099932;28;1146;-79
2022/07/16 00:15:46;;;;;;;;;;;26.00;45.30;;;;;;2100652;28;886;-80
2022/07/16 00:16:46;;;;;;;;;;;26.00;45.30;;;;;;2100550;28;886;-80
2022/07/16 00:17:47;;;;;;;;;;;26.00;45.30;;;;;;2099945;28;1273;-80
2022/07/16 00:20:06;;;;;;;;;;;26.00;45.30;;;;;;2100169;28;604;-80
2022/07/16 00:21:07;;;;;;;;;;;26.00;45.40;;;;;;2099887;28;1364;-80
2022/07/16 00:22:07;;;;;;;;;;;26.00;45.30;;;;;;2091438;28;1244;-79
2022/07/16 00:23:07;;;;;;;;;;;26.00;45.40;;;;;;2099863;28;917;-80
2022/07/16 00:24:08;;;;;;;;;;;26.00;45.30;;;;;;2100538;28;802;-79
2022/07/16 00:25:08;;;;;;;;;;;26.00;45.30;;;;;;2100403;28;1965;-80
2022/07/16 00:26:08;;;;;;;;;;;26.00;45.30;;;;;;2099804;28;1309;-80
2022/07/16 00:27:09;;;;;;;;;;;26.00;45.40;;;;;;2100011;28;905;-80
2022/07/16 00:28:09;;;;;;;;;;;26.00;45.30;;;;;;2099666;28;1272;-80
2022/07/16 00:29:09;;;;;;;;;;;26.00;45.40;;;;;;2091580;28;1120;-80
2022/07/16 00:30:10;;;;;;;;;;;26.00;45.40;;;;;;2099784;28;1080;-80
2022/07/16 00:31:10;;;;;;;;;;;26.00;45.30;;;;;;2099938;28;758;-80
2022/07/16 00:32:10;;;;;;;;;;;26.00;45.40;;;;;;2100312;28;1027;-79
2022/07/16 00:33:11;;;;;;;;;;;26.00;45.40;;;;;;2100530;28;913;-80
2022/07/16 00:34:12;;;;;;;;;;;26.00;45.40;;;;;;2100341;28;916;-80
2022/07/16 00:35:12;;;;;;;;;;;26.00;45.40;;;;;;2100399;28;1256;-80
2022/07/16 00:36:12;;;;;;;;;;;26.00;45.40;;;;;;2100435;28;881;-80
2022/07/16 00:37:13;;;;;;;;;;;26.00;45.40;;;;;;2100282;28;932;-80
2022/07/16 00:38:13;;;;;;;;;;;26.00;45.40;;;;;;2099474;28;1359;-80
2022/07/16 00:39:13;;;;;;;;;;;26.00;45.40;;;;;;2099720;28;1043;-80
2022/07/16 00:40:14;;;;;;;;;;;26.00;45.40;;;;;;2100356;28;1032;-80
2022/07/16 00:41:17;;;;;;;;;;;26.00;45.40;;;;;;2100254;28;895;-79
2022/07/16 00:42:17;;;;;;;;;;;26.00;45.40;;;;;;2099533;28;1205;-80
2022/07/16 00:43:18;;;;;;;;;;;26.00;45.40;;;;;;2099692;28;933;-80
2022/07/16 00:44:18;;;;;;;;;;;25.90;45.40;;;;;;2099637;28;1236;-80
2022/07/16 00:45:19;;;;;;;;;;;26.00;45.40;;;;;;2091142;28;1910;-79
2022/07/16 00:46:19;;;;;;;;;;;26.00;45.40;;;;;;2099551;28;822;-80
2022/07/16 00:47:19;;;;;;;;;;;26.00;45.40;;;;;;2100333;28;984;-80
2022/07/16 00:48:20;;;;;;;;;;;26.00;45.40;;;;;;2099551;28;1326;-80
2022/07/16 00:49:21;;;;;;;;;;;26.00;45.40;;;;;;2099546;28;917;-80
2022/07/16 00:50:21;;;;;;;;;;;26.00;45.40;;;;;;2100185;28;897;-80
2022/07/16 00:51:25;;;;;;;;;;;26.00;45.40;;;;;;2100200;28;866;-80
2022/07/16 00:52:25;;;;;;;;;;;26.00;45.40;;;;;;2099801;28;1363;-80
2022/07/16 00:53:26;;;;;;;;;;;25.90;45.40;;;;;;2091489;28;1368;-80
2022/07/16 00:54:26;;;;;;;;;;;26.00;45.40;;;;;;2091480;28;1218;-80
2022/07/16 00:55:26;;;;;;;;;;;26.00;45.40;;;;;;2099717;28;1327;-79
2022/07/16 00:56:27;;;;;;;;;;;26.00;45.40;;;;;;2099607;28;1307;-80
2022/07/16 00:57:27;;;;;;;;;;;26.00;45.40;;;;;;2091239;28;1133;-80
2022/07/16 00:58:29;;;;;;;;;;;26.00;45.40;;;;;;2091439;28;1274;-80
2022/07/16 00:59:29;;;;;;;;;;;26.00;45.40;;;;;;2091418;28;1428;-80
2022/07/16 01:00:29;;;;;;;;;;;26.00;45.40;;;;;;2091219;28;1430;-80
2022/07/16 01:01:30;;;;;;;;;;;26.00;45.40;;;;;;2099755;28;832;-80
2022/07/16 01:02:30;;;;;;;;;;;26.00;45.40;;;;;;2099696;28;1191;-80
2022/07/16 01:03:31;;;;;;;;;;;26.00;45.50;;;;;;2091326;28;1273;-80
2022/07/16 01:04:31;;;;;;;;;;;26.00;45.50;;;;;;2099711;28;1236;-79
2022/07/16 01:05:31;;;;;;;;;;;26.00;45.40;;;;;;2100324;28;1953;-79
2022/07/16 01:06:32;;;;;;;;;;;26.00;45.40;;;;;;2099543;28;1221;-80
2022/07/16 01:07:32;;;;;;;;;;;26.00;45.40;;;;;;2091269;28;1214;-79
2022/07/16 01:08:32;;;;;;;;;;;26.00;45.40;;;;;;2099808;28;865;-80
2022/07/16 01:09:33;;;;;;;;;;;25.90;45.50;;;;;;2100019;28;1116;-80
2022/07/16 01:10:33;;;;;;;;;;;26.00;45.50;;;;;;2099576;28;1248;-80
2022/07/16 01:11:34;;;;;;;;;;;26.00;45.50;;;;;;2091448;28;1378;-80
2022/07/16 01:12:34;;;;;;;;;;;26.00;45.50;;;;;;2099818;28;883;-80
2022/07/16 01:13:34;;;;;;;;;;;26.00;45.50;;;;;;2100272;28;991;-80
2022/07/16 01:14:35;;;;;;;;;;;26.00;45.40;;;;;;2100210;28;1161;-79
2022/07/16 01:15:35;;;;;;;;;;;26.00;45.50;;;;;;2099420;28;1411;-79
2022/07/16 01:16:35;;;;;;;;;;;26.00;45.50;;;;;;2091231;28;1313;-80
2022/07/16 01:17:36;;;;;;;;;;;26.00;45.50;;;;;;2099589;28;1407;-80
2022/07/16 01:18:36;;;;;;;;;;;26.00;45.50;;;;;;2099658;28;1023;-80
2022/07/16 01:19:37;;;;;;;;;;;26.00;45.50;;;;;;2099559;28;1303;-80
2022/07/16 01:20:37;;;;;;;;;;;26.00;45.50;;;;;;2091287;28;1259;-80
2022/07/16 01:21:37;;;;;;;;;;;26.00;45.50;;;;;;2099523;28;1276;-80
2022/07/16 01:22:38;;;;;;;;;;;26.00;45.50;;;;;;2091287;28;1392;-80
2022/07/16 01:23:38;;;;;;;;;;;26.00;45.50;;;;;;2099580;28;1062;-80
2022/07/16 01:24:38;;;;;;;;;;;26.00;45.50;;;;;;2099343;28;1157;-79
2022/07/16 01:25:39;;;;;;;;;;;26.00;45.50;;;;;;2091102;28;1903;-80
2022/07/16 01:26:39;;;;;;;;;;;26.00;45.50;;;;;;2091040;28;1224;-80
2022/07/16 01:27:39;;;;;;;;;;;25.90;45.50;;;;;;2090957;28;1432;-80
2022/07/16 01:28:40;;;;;;;;;;;26.00;45.50;;;;;;2099404;28;996;-80
2022/07/16 01:29:40;;;;;;;;;;;26.00;45.50;;;;;;2099996;28;932;-80
2022/07/16 01:30:40;;;;;;;;;;;26.00;45.50;;;;;;2099397;28;1418;-79
2022/07/16 01:31:41;;;;;;;;;;;26.00;45.50;;;;;;2099528;28;809;-79
2022/07/16 01:32:41;;;;;;;;;;;26.00;45.50;;;;;;2099386;28;1264;-80
2022/07/16 01:33:42;;;;;;;;;;;26.00;45.50;;;;;;2099496;28;896;-80
2022/07/16 01:34:42;;;;;;;;;;;26.00;45.50;;;;;;2099148;28;1347;-79
2022/07/16 01:35:42;;;;;;;;;;;26.00;45.50;;;;;;2091194;28;1404;-80
2022/07/16 01:36:43;;;;;;;;;;;26.00;45.60;;;;;;2091135;28;1129;-80
2022/07/16 01:37:43;;;;;;;;;;;26.00;45.50;;;;;;2091130;28;1236;-80
2022/07/16 01:38:43;;;;;;;;;;;26.00;45.50;;;;;;2091092;28;1301;-80
2022/07/16 01:39:44;;;;;;;;;;;26.00;45.60;;;;;;2099346;28;1360;-80
2022/07/16 01:40:44;;;;;;;;;;;25.90;45.50;;;;;;2099425;28;1016;-80
2022/07/16 01:41:44;;;;;;;;;;;26.00;45.60;;;;;;2099299;28;1283;-79
2022/07/16 01:42:45;;;;;;;;;;;26.00;45.50;;;;;;2099179;28;908;-80
2022/07/16 01:43:45;;;;;;;;;;;26.00;45.60;;;;;;2099071;28;1199;-80
2022/07/16 01:44:46;;;;;;;;;;;26.00;45.60;;;;;;2099532;28;1906;-79
2022/07/16 01:45:46;;;;;;;;;;;26.00;45.60;;;;;;2099477;28;1404;-80
2022/07/16 01:46:46;;;;;;;;;;;26.00;45.60;;;;;;2099331;28;960;-79
2022/07/16 01:47:47;;;;;;;;;;;26.00;45.60;;;;;;2107654;28;1127;-80
2022/07/16 01:48:47;;;;;;;;;;;26.00;45.60;;;;;;2099290;28;1375;-80
2022/07/16 01:49:47;;;;;;;;;;;26.00;45.60;;;;;;2099424;28;944;-80
2022/07/16 01:50:48;;;;;;;;;;;26.00;45.60;;;;;;2099311;28;1298;-80
2022/07/16 01:51:48;;;;;;;;;;;26.00;45.60;;;;;;2099515;28;1041;-80
2022/07/16 01:52:48;;;;;;;;;;;26.00;45.60;;;;;;2099421;28;1239;-80
2022/07/16 01:53:49;;;;;;;;;;;26.00;45.60;;;;;;2091099;28;1354;-80
2022/07/16 01:54:49;;;;;;;;;;;26.00;45.60;;;;;;2099204;28;1263;-79
2022/07/16 01:55:50;;;;;;;;;;;26.00;45.60;;;;;;2100084;28;1040;-80
2022/07/16 01:56:50;;;;;;;;;;;26.00;45.60;;;;;;2100153;28;905;-80
2022/07/16 01:57:50;;;;;;;;;;;26.00;45.60;;;;;;2100002;28;877;-80
2022/07/16 01:58:51;;;;;;;;;;;26.00;45.60;;;;;;2099423;28;1252;-80
2022/07/16 01:59:51;;;;;;;;;;;26.00;45.60;;;;;;2090994;28;1345;-80
2022/07/16 02:00:51;;;;;;;;;;;26.00;45.70;;;;;;2099306;28;1361;-80
2022/07/16 02:01:52;;;;;;;;;;;26.00;45.60;;;;;;2099500;28;992;-80
2022/07/16 02:02:52;;;;;;;;;;;26.00;45.60;;;;;;2099213;28;1365;-80
2022/07/16 02:03:52;;;;;;;;;;;26.00;45.60;;;;;;2099398;28;976;-79
2022/07/16 02:04:53;;;;;;;;;;;26.00;45.70;;;;;;2099895;28;1971;-80
2022/07/16 02:05:53;;;;;;;;;;;26.00;45.60;;;;;;2099292;28;1248;-80
2022/07/16 02:06:53;;;;;;;;;;;26.00;45.60;;;;;;2099328;28;1055;-80
2022/07/16 02:07:54;;;;;;;;;;;26.00;45.60;;;;;;2099155;28;1266;-80
2022/07/16 02:08:54;;;;;;;;;;;26.00;45.60;;;;;;2091069;28;1376;-80
2022/07/16 02:09:55;;;;;;;;;;;26.00;45.60;;;;;;2099362;28;897;-80
2022/07/16 02:10:55;;;;;;;;;;;26.00;45.60;;;;;;2099145;28;1222;-80
2022/07/16 02:11:55;;;;;;;;;;;26.00;45.70;;;;;;2099190;28;1377;-79
2022/07/16 02:12:56;;;;;;;;;;;26.00;45.70;;;;;;2107649;28;862;-79
2022/07/16 02:13:56;;;;;;;;;;;26.00;45.70;;;;;;2099379;28;1264;-80
2022/07/16 02:14:56;;;;;;;;;;;25.90;45.60;;;;;;2099405;28;1259;-79
2022/07/16 02:15:57;;;;;;;;;;;26.00;45.60;;;;;;2099284;28;1288;-80
2022/07/16 02:16:57;;;;;;;;;;;26.00;45.60;;;;;;2099518;28;916;-80
2022/07/16 02:17:57;;;;;;;;;;;26.00;45.60;;;;;;2099401;28;1268;-80
2022/07/16 02:18:58;;;;;;;;;;;26.00;45.70;;;;;;2091092;28;1390;-80
2022/07/16 02:19:58;;;;;;;;;;;26.00;45.60;;;;;;2091028;28;1334;-80
2022/07/16 02:20:58;;;;;;;;;;;26.00;45.60;;;;;;2099184;28;880;-79
2022/07/16 02:21:59;;;;;;;;;;;26.00;45.60;;;;;;2099890;28;901;-80
2022/07/16 02:22:59;;;;;;;;;;;26.00;45.70;;;;;;2099379;28;1220;-79
2022/07/16 02:24:00;;;;;;;;;;;26.00;45.70;;;;;;2099355;28;860;-79
2022/07/16 02:25:00;;;;;;;;;;;26.00;45.60;;;;;;2098933;28;1898;-80
2022/07/16 02:26:00;;;;;;;;;;;26.00;45.60;;;;;;2090983;28;1247;-80
2022/07/16 02:27:01;;;;;;;;;;;26.00;45.60;;;;;;2099302;28;940;-79
2022/07/16 02:28:07;;;;;;;;;;;26.00;45.70;;;;;;2099786;28;825;-80
2022/07/16 02:29:08;;;;;;;;;;;26.00;45.60;;;;;;2099137;28;1315;-80
2022/07/16 02:30:08;;;;;;;;;;;26.00;45.70;;;;;;2099201;28;846;-80
2022/07/16 02:31:09;;;;;;;;;;;26.00;45.60;;;;;;2099091;28;1213;-79
2022/07/16 02:32:09;;;;;;;;;;;26.00;45.60;;;;;;2099366;28;854;-79
2022/07/16 02:33:09;;;;;;;;;;;25.90;45.60;;;;;;2099251;28;1496;-80
2022/07/16 02:34:10;;;;;;;;;;;26.00;45.60;;;;;;2099148;28;935;-80
2022/07/16 02:35:10;;;;;;;;;;;26.00;45.60;;;;;;2099663;28;1248;-79
2022/07/16 02:36:10;;;;;;;;;;;26.00;45.70;;;;;;2099034;28;1276;-80
2022/07/16 02:37:11;;;;;;;;;;;26.00;45.70;;;;;;2090768;28;1372;-80
2022/07/16 02:38:11;;;;;;;;;;;26.00;45.70;;;;;;2099042;28;1265;-80
2022/07/16 02:39:12;;;;;;;;;;;25.90;45.70;;;;;;2090981;28;1346;-80
2022/07/16 02:40:13;;;;;;;;;;;26.00;45.70;;;;;;2099265;28;929;-79
2022/07/16 02:41:14;;;;;;;;;;;26.00;45.70;;;;;;2099528;28;1261;-80
2022/07/16 02:42:14;;;;;;;;;;;26.00;45.70;;;;;;2099058;28;1036;-80
2022/07/16 02:43:14;;;;;;;;;;;25.90;45.70;;;;;;2099133;28;1414;-80
2022/07/16 02:44:15;;;;;;;;;;;25.90;45.70;;;;;;2099195;28;857;-80
2022/07/16 02:45:15;;;;;;;;;;;26.00;45.60;;;;;;2098943;28;1894;-79
2022/07/16 02:46:15;;;;;;;;;;;26.00;45.70;;;;;;2099023;28;1098;-80
2022/07/16 02:47:16;;;;;;;;;;;26.00;45.70;;;;;;2107509;28;1217;-80
2022/07/16 02:48:16;;;;;;;;;;;26.00;45.60;;;;;;2099113;28;1402;-80
2022/07/16 02:49:16;;;;;;;;;;;26.00;45.70;;;;;;2090888;28;1221;-80
2022/07/16 02:50:17;;;;;;;;;;;26.00;45.70;;;;;;2099150;28;935;-80
2022/07/16 02:51:17;;;;;;;;;;;26.00;45.80;;;;;;2099172;28;1377;-80
2022/07/16 02:52:17;;;;;;;;;;;25.90;45.80;;;;;;2099164;28;887;-80
2022/07/16 02:53:18;;;;;;;;;;;26.00;45.70;;;;;;2099059;28;1224;-80
2022/07/16 02:54:18;;;;;;;;;;;26.00;45.70;;;;;;2091005;28;1302;-80
2022/07/16 02:55:19;;;;;;;;;;;26.00;45.70;;;;;;2092146;28;1288;-80
2022/07/16 02:56:19;;;;;;;;;;;25.90;45.70;;;;;;2100588;28;977;-80
2022/07/16 02:57:19;;;;;;;;;;;25.90;45.70;;;;;;2100616;28;1244;-80
2022/07/16 02:58:20;;;;;;;;;;;26.00;45.70;;;;;;2092354;28;1270;-80
2022/07/16 02:59:20;;;;;;;;;;;26.00;45.70;;;;;;2100724;28;826;-80
2022/07/16 03:00:21;;;;;;;;;;;26.00;45.80;;;;;;2100841;28;1210;-80
2022/07/16 03:01:21;;;;;;;;;;;26.00;45.70;;;;;;2100742;28;1386;-80
2022/07/16 03:02:22;;;;;;;;;;;26.00;45.70;;;;;;2100650;28;1300;-80
2022/07/16 03:03:22;;;;;;;;;;;26.00;45.70;;;;;;2092295;28;1210;-80
2022/07/16 03:04:22;;;;;;;;;;;26.00;45.80;;;;;;2100561;28;1388;-80
2022/07/16 03:05:23;;;;;;;;;;;26.00;45.80;;;;;;2092091;28;1965;-79
2022/07/16 03:06:23;;;;;;;;;;;25.90;45.80;;;;;;2092266;28;1381;-80
2022/07/16 03:07:23;;;;;;;;;;;26.00;45.70;;;;;;2100754;28;940;-80
2022/07/16 03:08:24;;;;;;;;;;;26.00;45.70;;;;;;2100578;28;1116;-80
2022/07/16 03:09:24;;;;;;;;;;;26.00;45.70;;;;;;2100629;28;888;-80
2022/07/16 03:10:24;;;;;;;;;;;26.00;45.80;;;;;;2101199;28;1020;-80
2022/07/16 03:11:25;;;;;;;;;;;26.00;45.80;;;;;;2101005;28;855;-80
2022/07/16 03:12:25;;;;;;;;;;;25.90;45.70;;;;;;2101003;28;855;-80
2022/07/16 03:13:26;;;;;;;;;;;26.00;45.80;;;;;;2100459;28;1230;-80
2022/07/16 03:14:26;;;;;;;;;;;26.00;45.80;;;;;;2100767;28;924;-80
2022/07/16 03:15:26;;;;;;;;;;;26.00;45.70;;;;;;2100251;28;1402;-80
2022/07/16 03:16:27;;;;;;;;;;;26.00;45.80;;;;;;2092091;28;1377;-80
2022/07/16 03:17:27;;;;;;;;;;;26.00;45.70;;;;;;2100516;28;906;-79
2022/07/16 03:18:27;;;;;;;;;;;25.90;45.80;;;;;;2100354;28;1269;-80
2022/07/16 03:19:28;;;;;;;;;;;26.00;45.80;;;;;;2100508;28;1363;-80
2022/07/16 03:20:28;;;;;;;;;;;26.00;45.80;;;;;;2109030;28;876;-80
2022/07/16 03:21:28;;;;;;;;;;;26.00;45.80;;;;;;2101103;28;1020;-80
2022/07/16 03:22:29;;;;;;;;;;;26.00;45.80;;;;;;2100334;28;1278;-80
2022/07/16 03:23:29;;;;;;;;;;;26.00;45.80;;;;;;2100374;28;1079;-80
2022/07/16 03:24:30;;;;;;;;;;;26.00;45.80;;;;;;2101045;28;821;-80
2022/07/16 03:25:30;;;;;;;;;;;25.90;45.80;;;;;;2100910;28;1961;-79
2022/07/16 03:26:31;;;;;;;;;;;26.00;45.80;;;;;;2100225;28;1412;-79
2022/07/16 03:27:31;;;;;;;;;;;25.90;45.90;;;;;;2100375;28;891;-80
2022/07/16 03:28:32;;;;;;;;;;;26.00;45.80;;;;;;2100245;28;1401;-80
2022/07/16 03:29:32;;;;;;;;;;;26.00;45.80;;;;;;2092147;28;1259;-80
2022/07/16 03:30:32;;;;;;;;;;;26.00;45.80;;;;;;2091986;28;1268;-80
2022/07/16 03:31:33;;;;;;;;;;;26.00;45.80;;;;;;2100369;28;922;-80
2022/07/16 03:32:33;;;;;;;;;;;26.00;45.80;;;;;;2100217;28;1406;-80
2022/07/16 03:33:34;;;;;;;;;;;26.00;45.80;;;;;;2091997;28;1220;-80
2022/07/16 03:34:35;;;;;;;;;;;26.00;45.80;;;;;;2100024;28;1344;-79
2022/07/16 03:35:35;;;;;;;;;;;26.00;45.80;;;;;;2100370;28;825;-80
2022/07/16 03:36:36;;;;;;;;;;;26.00;45.80;;;;;;2100454;28;1219;-80
2022/07/16 03:39:05;;;;;;;;;;;25.90;45.80;;;;;;2083465;28;1515;-80
2022/07/16 03:40:06;;;;;;;;;;;26.00;45.80;;;;;;2099845;28;1241;-80
2022/07/16 03:41:06;;;;;;;;;;;26.00;45.80;;;;;;2091967;28;1345;-80
2022/07/16 03:42:06;;;;;;;;;;;26.00;45.80;;;;;;2100305;28;1008;-80
2022/07/16 03:43:07;;;;;;;;;;;25.90;45.80;;;;;;2100846;28;821;-80
2022/07/16 03:44:07;;;;;;;;;;;26.00;45.80;;;;;;2100963;28;956;-79
2022/07/16 03:45:08;;;;;;;;;;;26.00;45.80;;;;;;2100155;28;1973;-80
2022/07/16 03:46:12;;;;;;;;;;;26.00;45.80;;;;;;2100469;28;888;-80
2022/07/16 03:47:12;;;;;;;;;;;26.00;45.80;;;;;;2100939;28;935;-80
2022/07/16 03:48:13;;;;;;;;;;;26.00;45.80;;;;;;2100843;28;881;-80
2022/07/16 03:49:13;;;;;;;;;;;26.00;45.80;;;;;;2100770;28;933;-80
2022/07/16 03:50:14;;;;;;;;;;;26.00;45.90;;;;;;2100793;28;817;-80
2022/07/16 03:51:14;;;;;;;;;;;26.00;45.80;;;;;;2100904;28;879;-80
2022/07/16 03:52:15;;;;;;;;;;;26.00;45.80;;;;;;2100757;28;925;-80
2022/07/16 03:53:15;;;;;;;;;;;26.00;45.80;;;;;;2100791;28;1055;-80
2022/07/16 03:54:15;;;;;;;;;;;26.00;45.80;;;;;;2100163;28;1216;-80
2022/07/16 03:55:16;;;;;;;;;;;26.00;45.80;;;;;;2091735;28;1354;-80
2022/07/16 03:56:16;;;;;;;;;;;26.00;45.90;;;;;;2100064;28;1235;-80
2022/07/16 03:57:16;;;;;;;;;;;26.00;45.90;;;;;;2091956;28;1398;-80
2022/07/16 03:58:17;;;;;;;;;;;26.00;45.90;;;;;;2099963;28;1228;-80
2022/07/16 03:59:17;;;;;;;;;;;26.00;45.80;;;;;;2091768;28;1329;-80
2022/07/16 04:00:18;;;;;;;;;;;26.00;45.90;;;;;;2091820;28;1242;-80
2022/07/16 04:01:18;;;;;;;;;;;26.00;45.80;;;;;;2100198;28;877;-80
2022/07/16 04:02:18;;;;;;;;;;;26.00;45.80;;;;;;2100077;28;1268;-79
2022/07/16 04:03:19;;;;;;;;;;;26.00;45.80;;;;;;2100254;28;1084;-80
2022/07/16 04:04:19;;;;;;;;;;;26.00;45.90;;;;;;2100188;28;1244;-80
2022/07/16 04:05:20;;;;;;;;;;;26.00;45.80;;;;;;2091599;28;1959;-79
2022/07/16 04:06:20;;;;;;;;;;;26.00;45.80;;;;;;2099343;28;805;-80
2022/07/16 04:07:20;;;;;;;;;;;26.00;45.90;;;;;;2108424;28;1237;-80
2022/07/16 04:08:21;;;;;;;;;;;26.00;45.80;;;;;;2100173;28;1336;-80
2022/07/16 04:09:21;;;;;;;;;;;26.00;45.80;;;;;;2100149;28;852;-80
2022/07/16 04:10:22;;;;;;;;;;;26.00;45.80;;;;;;2100800;28;833;-80
2022/07/16 04:11:22;;;;;;;;;;;26.00;45.90;;;;;;2100052;28;1222;-80
2022/07/16 04:12:23;;;;;;;;;;;26.00;45.90;;;;;;2100053;28;869;-80
2022/07/16 04:13:23;;;;;;;;;;;26.00;45.90;;;;;;2099941;28;1459;-80
2022/07/16 04:14:23;;;;;;;;;;;26.00;45.90;;;;;;2100134;28;806;-80
2022/07/16 04:15:24;;;;;;;;;;;26.00;45.80;;;;;;2100627;28;1270;-79
2022/07/16 04:16:25;;;;;;;;;;;26.00;45.80;;;;;;2100661;28;864;-80
2022/07/16 04:17:25;;;;;;;;;;;26.00;45.80;;;;;;2100441;28;949;-80
2022/07/16 04:18:25;;;;;;;;;;;26.00;45.90;;;;;;2100678;28;883;-80
2022/07/16 04:19:26;;;;;;;;;;;26.00;45.90;;;;;;2099837;28;1275;-80
2022/07/16 04:20:26;;;;;;;;;;;26.00;45.80;;;;;;2091722;28;1259;-79
2022/07/16 04:21:26;;;;;;;;;;;26.00;45.90;;;;;;2100122;28;846;-80
2022/07/16 04:22:27;;;;;;;;;;;26.00;45.90;;;;;;2099918;28;1225;-80
2022/07/16 04:23:27;;;;;;;;;;;26.00;45.80;;;;;;2100040;28;903;-80
2022/07/16 04:24:27;;;;;;;;;;;26.00;45.80;;;;;;2100087;28;1257;-80
2022/07/16 04:25:28;;;;;;;;;;;26.00;45.80;;;;;;2099467;28;1898;-79
2022/07/16 04:26:28;;;;;;;;;;;26.00;45.80;;;;;;2100489;28;1079;-80
2022/07/16 04:27:28;;;;;;;;;;;26.00;45.80;;;;;;2099914;28;1389;-80
2022/07/16 04:28:29;;;;;;;;;;;26.00;45.80;;;;;;2091579;28;1242;-80
2022/07/16 04:29:29;;;;;;;;;;;26.00;45.80;;;;;;2099954;28;1377;-80
2022/07/16 04:30:30;;;;;;;;;;;26.00;45.80;;;;;;2099966;28;1000;-80
2022/07/16 04:31:30;;;;;;;;;;;26.00;45.80;;;;;;2099899;28;1168;-80
2022/07/16 04:32:30;;;;;;;;;;;26.00;45.90;;;;;;2091563;28;1371;-80
2022/07/16 04:33:31;;;;;;;;;;;26.00;45.80;;;;;;2099912;28;1262;-80
2022/07/16 04:34:31;;;;;;;;;;;26.00;45.80;;;;;;2099774;28;1209;-80
2022/07/16 04:35:31;;;;;;;;;;;26.00;45.80;;;;;;2100462;28;814;-80
2022/07/16 04:36:32;;;;;;;;;;;26.00;45.80;;;;;;2100467;28;904;-80
2022/07/16 04:37:32;;;;;;;;;;;26.00;45.80;;;;;;2100313;28;1101;-80
2022/07/16 04:38:32;;;;;;;;;;;26.00;45.80;;;;;;2099680;28;1270;-80
2022/07/16 04:39:33;;;;;;;;;;;26.10;45.80;;;;;;2091533;28;1265;-80
2022/07/16 04:40:33;;;;;;;;;;;26.00;45.80;;;;;;2099394;28;962;-80
2022/07/16 04:41:35;;;;;;;;;;;26.00;45.80;;;;;;2100366;28;1030;-80
2022/07/16 04:42:35;;;;;;;;;;;26.10;45.80;;;;;;2099791;28;1388;-80
2022/07/16 04:43:36;;;;;;;;;;;26.00;45.80;;;;;;2091586;28;1302;-80
2022/07/16 04:44:36;;;;;;;;;;;26.00;45.80;;;;;;2099820;28;1295;-79
2022/07/16 04:45:36;;;;;;;;;;;26.10;45.80;;;;;;2099671;28;1960;-80
2022/07/16 04:46:37;;;;;;;;;;;26.10;45.80;;;;;;2091246;28;1378;-80
2022/07/16 04:47:37;;;;;;;;;;;26.10;45.70;;;;;;2099810;28;1012;-79
2022/07/16 04:48:38;;;;;;;;;;;26.10;45.80;;;;;;2100377;28;786;-79
2022/07/16 04:49:38;;;;;;;;;;;26.00;45.80;;;;;;2100319;28;944;-80
2022/07/16 04:50:38;;;;;;;;;;;26.10;45.80;;;;;;2099786;28;1368;-80
2022/07/16 04:51:39;;;;;;;;;;;26.00;45.80;;;;;;2091478;28;1282;-80
2022/07/16 04:52:39;;;;;;;;;;;26.00;45.80;;;;;;2099864;28;964;-80
2022/07/16 04:53:39;;;;;;;;;;;26.10;45.80;;;;;;2100291;28;785;-80
2022/07/16 04:54:40;;;;;;;;;;;26.00;45.80;;;;;;2100145;28;1230;-79
2022/07/16 04:55:40;;;;;;;;;;;26.10;45.80;;;;;;2100405;28;1154;-80
2022/07/16 04:56:40;;;;;;;;;;;26.10;45.70;;;;;;2099836;28;1241;-80
2022/07/16 04:57:41;;;;;;;;;;;26.10;45.80;;;;;;2091522;28;1362;-80
2022/07/16 04:58:41;;;;;;;;;;;26.10;45.80;;;;;;2099672;28;875;-80
2022/07/16 04:59:41;;;;;;;;;;;26.10;45.80;;;;;;2100390;28;948;-80
2022/07/16 05:00:42;;;;;;;;;;;26.10;45.80;;;;;;2100281;28;1011;-80
2022/07/16 05:01:42;;;;;;;;;;;26.10;45.80;;;;;;2099636;28;1391;-80
2022/07/16 05:02:58;;;;;;;;;;;26.00;45.80;;;;;;2091246;28;1402;-80
2022/07/16 05:03:58;;;;;;;;;;;26.10;45.80;;;;;;2099489;28;1286;-80
2022/07/16 05:04:58;;;;;;;;;;;26.10;45.80;;;;;;2099543;28;1956;-80
2022/07/16 05:05:59;;;;;;;;;;;26.10;45.80;;;;;;2099485;28;1286;-80
2022/07/16 05:06:59;;;;;;;;;;;26.10;45.80;;;;;;2091374;28;1276;-80
2022/07/16 05:07:59;;;;;;;;;;;26.10;45.80;;;;;;2099525;28;1244;-80
2022/07/16 05:09:01;;;;;;;;;;;26.20;45.80;;;;;;2091216;28;1230;-80
2022/07/16 05:10:01;;;;;;;;;;;26.10;45.70;;;;;;2099440;28;1229;-80
2022/07/16 05:11:01;;;;;;;;;;;26.10;45.80;;;;;;2099591;28;890;-80
2022/07/16 05:12:02;;;;;;;;;;;26.10;45.80;;;;;;2099572;28;1264;-80
2022/07/16 05:13:02;;;;;;;;;;;26.10;45.80;;;;;;2099552;28;1253;-80
2022/07/16 05:14:03;;;;;;;;;;;26.10;45.70;;;;;;2107843;28;1374;-80
2022/07/16 05:15:03;;;;;;;;;;;26.10;45.80;;;;;;2099704;28;1160;-80
2022/07/16 05:16:03;;;;;;;;;;;26.10;45.70;;;;;;2100238;28;810;-80
2022/07/16 05:17:04;;;;;;;;;;;26.20;45.70;;;;;;2100274;28;932;-80
2022/07/16 05:18:04;;;;;;;;;;;26.10;45.70;;;;;;2100232;28;1037;-80
2022/07/16 05:19:04;;;;;;;;;;;26.20;45.70;;;;;;2100177;28;851;-79
2022/07/16 05:20:05;;;;;;;;;;;26.20;45.70;;;;;;2100155;28;911;-80
2022/07/16 05:21:05;;;;;;;;;;;26.10;45.70;;;;;;2100003;28;929;-80
2022/07/16 05:22:06;;;;;;;;;;;26.20;45.70;;;;;;2099384;28;1119;-80
2022/07/16 05:23:07;;;;;;;;;;;26.20;45.70;;;;;;2091099;28;1172;-80
2022/07/16 05:24:07;;;;;;;;;;;26.10;45.70;;;;;;2099499;28;1407;-80
2022/07/16 05:25:07;;;;;;;;;;;26.20;45.70;;;;;;2090959;28;1890;-80
2022/07/16 05:26:08;;;;;;;;;;;26.20;45.70;;;;;;2099432;28;1373;-80
2022/07/16 05:27:08;;;;;;;;;;;26.20;45.70;;;;;;2091167;28;1372;-80
2022/07/16 05:28:09;;;;;;;;;;;26.20;45.70;;;;;;2099486;28;1262;-80
2022/07/16 05:29:09;;;;;;;;;;;26.20;45.70;;;;;;2099605;28;868;-80
2022/07/16 05:30:09;;;;;;;;;;;26.20;45.70;;;;;;2099464;28;1273;-80
2022/07/16 05:31:10;;;;;;;;;;;26.20;45.70;;;;;;2091055;28;1211;-80
2022/07/16 05:32:10;;;;;;;;;;;26.20;45.70;;;;;;2099580;28;862;-80
2022/07/16 05:33:10;;;;;;;;;;;26.20;45.70;;;;;;2100007;28;1016;-79
2022/07/16 05:34:11;;;;;;;;;;;26.20;45.70;;;;;;2099142;28;1260;-80
2022/07/16 05:35:11;;;;;;;;;;;26.20;45.70;;;;;;2091207;28;1379;-79
2022/07/16 05:36:12;;;;;;;;;;;26.20;45.70;;;;;;2099464;28;1276;-80
2022/07/16 05:37:12;;;;;;;;;;;26.20;45.70;;;;;;2099434;28;853;-80
2022/07/16 05:38:13;;;;;;;;;;;26.20;45.70;;;;;;2099847;28;1079;-80
2022/07/16 05:39:13;;;;;;;;;;;26.20;45.70;;;;;;2100088;28;877;-80
2022/07/16 05:40:14;;;;;;;;;;;26.20;45.70;;;;;;2100044;28;889;-80
2022/07/16 05:41:14;;;;;;;;;;;26.30;45.70;;;;;;2099998;28;903;-80
2022/07/16 05:42:14;;;;;;;;;;;26.20;45.70;;;;;;2100113;28;885;-80
2022/07/16 05:43:15;;;;;;;;;;;26.20;45.70;;;;;;2100062;28;928;-80
2022/07/16 05:44:15;;;;;;;;;;;26.30;45.70;;;;;;2100212;28;814;-80
2022/07/16 05:45:15;;;;;;;;;;;26.20;45.70;;;;;;2099272;28;1956;-80
2022/07/16 05:46:16;;;;;;;;;;;26.20;45.80;;;;;;2091072;28;1399;-80
2022/07/16 05:47:16;;;;;;;;;;;26.20;45.70;;;;;;2099182;28;1319;-80
2022/07/16 05:48:17;;;;;;;;;;;26.20;45.70;;;;;;2099528;28;892;-80
2022/07/16 05:49:17;;;;;;;;;;;26.30;45.70;;;;;;2100155;28;888;-80
2022/07/16 05:50:17;;;;;;;;;;;26.20;45.70;;;;;;2100094;28;988;-80
2022/07/16 05:51:18;;;;;;;;;;;26.30;45.70;;;;;;2099226;28;1268;-80
2022/07/16 05:52:18;;;;;;;;;;;26.20;45.70;;;;;;2099389;28;904;-80
2022/07/16 05:53:18;;;;;;;;;;;26.20;45.70;;;;;;2099248;28;1140;-80
2022/07/16 05:54:19;;;;;;;;;;;26.20;45.70;;;;;;2099481;28;850;-80
2022/07/16 05:55:19;;;;;;;;;;;26.30;45.70;;;;;;2099125;28;1291;-80
2022/07/16 05:56:19;;;;;;;;;;;26.30;45.70;;;;;;2091157;28;1403;-80
2022/07/16 05:57:20;;;;;;;;;;;26.20;45.70;;;;;;2099363;28;940;-80
2022/07/16 05:58:20;;;;;;;;;;;26.20;45.70;;;;;;2107564;28;1233;-80
2022/07/16 05:59:20;;;;;;;;;;;26.20;45.70;;;;;;2099164;28;1285;-80
2022/07/16 06:00:21;;;;;;;;;;;26.20;45.70;;;;;;2090964;28;1260;-81
2022/07/16 06:01:22;;;;;;;;;;;26.30;45.70;;;;;;2099362;28;1059;-80